sensor_id;sensor_type;location;lat;lon;timestamp;P1;durP1;ratioP1;P2;durP2;ratioP2
13374;SDS011;6756;51.354;15.754;2023-04-06T00:01:33;5.80;;;3.27;;
13374;SDS011;6756;51.354;15.754;2023-04-06T00:05:35;3.97;;;2.50;;
13374;SDS011;6756;51.354;15.754;2023-04-06T00:09:39;4.73;;;2.43;;
13374;SDS011;6756;51.354;15.754;2023-04-06T00:13:44;4.13;;;2.67;;
13374;SDS011;6756;51.354;15.754;2023-04-06T00:17:48;3.57;;;2.10;;
13374;SDS011;6756;51.354;15.754;2023-04-06T00:21:49;4.53;;;2.77;;
13374;SDS011;6756;51.354;15.754;2023-04-06T00:25:50;4.33;;;2.60;;
13374;SDS011;6756;51.354;15.754;2023-04-06T00:29:51;4.43;;;3.17;;
13374;SDS011;6756;51.354;15.754;2023-04-06T00:33:52;4.27;;;2.73;;
13374;SDS011;6756;51.354;15.754;2023-04-06T00:37:53;4.23;;;3.07;;
13374;SDS011;6756;51.354;15.754;2023-04-06T00:41:54;5.93;;;3.43;;
13374;SDS011;6756;51.354;15.754;2023-04-06T00:45:56;6.30;;;3.53;;
13374;SDS011;6756;51.354;15.754;2023-04-06T00:49:58;5.83;;;3.43;;
13374;SDS011;6756;51.354;15.754;2023-04-06T00:53:58;6.17;;;3.67;;
13374;SDS011;6756;51.354;15.754;2023-04-06T00:58:06;5.10;;;3.97;;
13374;SDS011;6756;51.354;15.754;2023-04-06T01:02:07;6.07;;;3.77;;
13374;SDS011;6756;51.354;15.754;2023-04-06T01:06:09;7.07;;;3.80;;
13374;SDS011;6756;51.354;15.754;2023-04-06T01:10:10;5.90;;;3.33;;
13374;SDS011;6756;51.354;15.754;2023-04-06T01:14:11;5.83;;;3.60;;
13374;SDS011;6756;51.354;15.754;2023-04-06T01:18:12;5.00;;;3.73;;
13374;SDS011;6756;51.354;15.754;2023-04-06T01:22:16;7.77;;;4.00;;
13374;SDS011;6756;51.354;15.754;2023-04-06T01:26:24;5.67;;;3.80;;
13374;SDS011;6756;51.354;15.754;2023-04-06T01:30:26;6.50;;;4.30;;
13374;SDS011;6756;51.354;15.754;2023-04-06T01:34:27;7.40;;;4.57;;
13374;SDS011;6756;51.354;15.754;2023-04-06T01:38:28;8.63;;;4.80;;
13374;SDS011;6756;51.354;15.754;2023-04-06T01:42:30;8.67;;;4.73;;
13374;SDS011;6756;51.354;15.754;2023-04-06T01:46:31;12.37;;;6.43;;
13374;SDS011;6756;51.354;15.754;2023-04-06T01:50:32;9.83;;;5.90;;
13374;SDS011;6756;51.354;15.754;2023-04-06T01:54:33;9.60;;;5.73;;
13374;SDS011;6756;51.354;15.754;2023-04-06T01:58:34;8.47;;;5.17;;
13374;SDS011;6756;51.354;15.754;2023-04-06T02:02:36;8.43;;;5.10;;
13374;SDS011;6756;51.354;15.754;2023-04-06T02:06:37;7.13;;;4.67;;
13374;SDS011;6756;51.354;15.754;2023-04-06T02:10:42;6.40;;;3.67;;
13374;SDS011;6756;51.354;15.754;2023-04-06T02:14:46;6.47;;;3.87;;
13374;SDS011;6756;51.354;15.754;2023-04-06T02:18:47;5.47;;;4.13;;
13374;SDS011;6756;51.354;15.754;2023-04-06T02:22:49;9.43;;;4.23;;
13374;SDS011;6756;51.354;15.754;2023-04-06T02:26:50;6.97;;;4.23;;
13374;SDS011;6756;51.354;15.754;2023-04-06T02:30:54;7.03;;;4.30;;
13374;SDS011;6756;51.354;15.754;2023-04-06T02:34:55;8.13;;;4.60;;
13374;SDS011;6756;51.354;15.754;2023-04-06T02:39:08;10.20;;;4.93;;
13374;SDS011;6756;51.354;15.754;2023-04-06T02:43:10;14.70;;;4.93;;
13374;SDS011;6756;51.354;15.754;2023-04-06T02:47:12;8.03;;;4.97;;
13374;SDS011;6756;51.354;15.754;2023-04-06T02:51:16;12.80;;;6.30;;
13374;SDS011;6756;51.354;15.754;2023-04-06T02:55:18;14.20;;;7.33;;
13374;SDS011;6756;51.354;15.754;2023-04-06T02:59:19;12.57;;;6.30;;
13374;SDS011;6756;51.354;15.754;2023-04-06T03:03:20;12.57;;;6.37;;
13374;SDS011;6756;51.354;15.754;2023-04-06T03:07:22;10.37;;;5.13;;
13374;SDS011;6756;51.354;15.754;2023-04-06T03:11:22;11.33;;;6.13;;
13374;SDS011;6756;51.354;15.754;2023-04-06T03:15:23;12.03;;;6.20;;
13374;SDS011;6756;51.354;15.754;2023-04-06T03:19:24;13.60;;;7.10;;
13374;SDS011;6756;51.354;15.754;2023-04-06T03:23:34;9.20;;;5.80;;
13374;SDS011;6756;51.354;15.754;2023-04-06T03:27:35;13.10;;;6.10;;
13374;SDS011;6756;51.354;15.754;2023-04-06T03:31:36;11.13;;;6.10;;
13374;SDS011;6756;51.354;15.754;2023-04-06T03:35:37;10.93;;;6.20;;
13374;SDS011;6756;51.354;15.754;2023-04-06T03:39:41;11.57;;;6.47;;
13374;SDS011;6756;51.354;15.754;2023-04-06T03:43:42;13.40;;;7.40;;
13374;SDS011;6756;51.354;15.754;2023-04-06T03:47:43;11.57;;;7.00;;
13374;SDS011;6756;51.354;15.754;2023-04-06T03:51:45;9.07;;;6.17;;
13374;SDS011;6756;51.354;15.754;2023-04-06T03:55:49;11.43;;;7.07;;
13374;SDS011;6756;51.354;15.754;2023-04-06T03:59:50;14.23;;;8.13;;
13374;SDS011;6756;51.354;15.754;2023-04-06T04:04:00;16.00;;;7.87;;
13374;SDS011;6756;51.354;15.754;2023-04-06T04:08:07;10.90;;;7.20;;
13374;SDS011;6756;51.354;15.754;2023-04-06T04:12:27;14.50;;;7.53;;
13374;SDS011;6756;51.354;15.754;2023-04-06T04:16:28;17.37;;;9.53;;
13374;SDS011;6756;51.354;15.754;2023-04-06T04:20:30;20.50;;;9.83;;
13374;SDS011;6756;51.354;15.754;2023-04-06T04:24:32;15.83;;;8.87;;
13374;SDS011;6756;51.354;15.754;2023-04-06T04:28:51;13.87;;;8.60;;
13374;SDS011;6756;51.354;15.754;2023-04-06T04:32:52;10.90;;;7.17;;
13374;SDS011;6756;51.354;15.754;2023-04-06T04:36:56;12.60;;;6.73;;
13374;SDS011;6756;51.354;15.754;2023-04-06T04:40:58;13.43;;;6.73;;
13374;SDS011;6756;51.354;15.754;2023-04-06T04:49:31;30.20;;;14.63;;
13374;SDS011;6756;51.354;15.754;2023-04-06T04:53:31;30.30;;;14.33;;
13374;SDS011;6756;51.354;15.754;2023-04-06T04:57:32;23.50;;;12.57;;
13374;SDS011;6756;51.354;15.754;2023-04-06T05:01:33;24.67;;;13.17;;
13374;SDS011;6756;51.354;15.754;2023-04-06T05:05:34;27.47;;;13.17;;
13374;SDS011;6756;51.354;15.754;2023-04-06T05:09:35;22.73;;;11.90;;
13374;SDS011;6756;51.354;15.754;2023-04-06T05:13:48;15.63;;;9.33;;
13374;SDS011;6756;51.354;15.754;2023-04-06T05:17:49;18.63;;;10.63;;
13374;SDS011;6756;51.354;15.754;2023-04-06T05:21:51;19.67;;;11.47;;
13374;SDS011;6756;51.354;15.754;2023-04-06T05:26:00;21.17;;;11.67;;
13374;SDS011;6756;51.354;15.754;2023-04-06T05:30:01;33.77;;;16.57;;
13374;SDS011;6756;51.354;15.754;2023-04-06T05:34:02;37.63;;;18.73;;
13374;SDS011;6756;51.354;15.754;2023-04-06T05:38:03;47.50;;;22.37;;
13374;SDS011;6756;51.354;15.754;2023-04-06T05:42:21;54.90;;;23.80;;
13374;SDS011;6756;51.354;15.754;2023-04-06T05:46:23;76.70;;;36.13;;
13374;SDS011;6756;51.354;15.754;2023-04-06T05:50:30;58.50;;;29.37;;
13374;SDS011;6756;51.354;15.754;2023-04-06T05:54:35;47.57;;;24.37;;
13374;SDS011;6756;51.354;15.754;2023-04-06T05:58:38;39.83;;;21.70;;
13374;SDS011;6756;51.354;15.754;2023-04-06T06:02:40;34.33;;;20.63;;
13374;SDS011;6756;51.354;15.754;2023-04-06T06:06:42;36.37;;;20.03;;
13374;SDS011;6756;51.354;15.754;2023-04-06T06:10:53;34.37;;;17.83;;
13374;SDS011;6756;51.354;15.754;2023-04-06T06:14:55;48.83;;;24.43;;
13374;SDS011;6756;51.354;15.754;2023-04-06T06:18:59;53.67;;;30.30;;
13374;SDS011;6756;51.354;15.754;2023-04-06T06:23:03;81.47;;;45.63;;
13374;SDS011;6756;51.354;15.754;2023-04-06T06:27:04;90.97;;;45.73;;
13374;SDS011;6756;51.354;15.754;2023-04-06T06:31:05;66.13;;;36.27;;
13374;SDS011;6756;51.354;15.754;2023-04-06T06:35:08;66.00;;;36.63;;
13374;SDS011;6756;51.354;15.754;2023-04-06T06:39:09;79.00;;;47.10;;
13374;SDS011;6756;51.354;15.754;2023-04-06T06:43:20;88.70;;;52.83;;
13374;SDS011;6756;51.354;15.754;2023-04-06T06:47:24;151.80;;;77.63;;
13374;SDS011;6756;51.354;15.754;2023-04-06T06:51:29;144.87;;;78.57;;
13374;SDS011;6756;51.354;15.754;2023-04-06T06:55:30;86.57;;;50.93;;
13374;SDS011;6756;51.354;15.754;2023-04-06T06:59:31;54.00;;;35.87;;
13374;SDS011;6756;51.354;15.754;2023-04-06T07:03:33;36.87;;;25.63;;
13374;SDS011;6756;51.354;15.754;2023-04-06T07:07:34;50.10;;;31.10;;
13374;SDS011;6756;51.354;15.754;2023-04-06T07:11:35;46.30;;;29.03;;
13374;SDS011;6756;51.354;15.754;2023-04-06T07:15:36;41.73;;;25.97;;
13374;SDS011;6756;51.354;15.754;2023-04-06T07:19:37;41.60;;;24.30;;
13374;SDS011;6756;51.354;15.754;2023-04-06T07:23:45;40.33;;;23.00;;
13374;SDS011;6756;51.354;15.754;2023-04-06T07:27:48;35.67;;;22.03;;
13374;SDS011;6756;51.354;15.754;2023-04-06T07:31:49;31.60;;;19.73;;
13374;SDS011;6756;51.354;15.754;2023-04-06T07:40:34;25.70;;;16.63;;
13374;SDS011;6756;51.354;15.754;2023-04-06T07:44:35;24.33;;;15.37;;
13374;SDS011;6756;51.354;15.754;2023-04-06T07:48:36;25.97;;;17.03;;
13374;SDS011;6756;51.354;15.754;2023-04-06T07:52:38;25.00;;;15.47;;
13374;SDS011;6756;51.354;15.754;2023-04-06T07:56:43;23.30;;;14.60;;
13374;SDS011;6756;51.354;15.754;2023-04-06T08:00:46;19.73;;;14.00;;
13374;SDS011;6756;51.354;15.754;2023-04-06T08:04:50;13.67;;;11.13;;
13374;SDS011;6756;51.354;15.754;2023-04-06T08:08:51;15.37;;;11.00;;
13374;SDS011;6756;51.354;15.754;2023-04-06T08:13:03;19.37;;;13.07;;
13374;SDS011;6756;51.354;15.754;2023-04-06T08:17:03;17.87;;;11.13;;
13374;SDS011;6756;51.354;15.754;2023-04-06T08:21:04;29.80;;;17.93;;
13374;SDS011;6756;51.354;15.754;2023-04-06T08:25:05;19.27;;;13.37;;
13374;SDS011;6756;51.354;15.754;2023-04-06T08:29:06;20.20;;;13.60;;
13374;SDS011;6756;51.354;15.754;2023-04-06T08:33:08;15.83;;;10.93;;
13374;SDS011;6756;51.354;15.754;2023-04-06T08:37:10;25.07;;;17.13;;
13374;SDS011;6756;51.354;15.754;2023-04-06T08:41:11;12.40;;;9.77;;
13374;SDS011;6756;51.354;15.754;2023-04-06T08:45:13;15.87;;;11.07;;
13374;SDS011;6756;51.354;15.754;2023-04-06T08:49:17;14.67;;;10.37;;
13374;SDS011;6756;51.354;15.754;2023-04-06T08:53:22;16.90;;;11.20;;
13374;SDS011;6756;51.354;15.754;2023-04-06T08:57:26;15.40;;;11.43;;
13374;SDS011;6756;51.354;15.754;2023-04-06T09:01:31;16.67;;;10.77;;
13374;SDS011;6756;51.354;15.754;2023-04-06T09:05:36;11.60;;;9.63;;
13374;SDS011;6756;51.354;15.754;2023-04-06T09:09:41;13.20;;;9.80;;
13374;SDS011;6756;51.354;15.754;2023-04-06T09:13:51;12.23;;;9.37;;
13374;SDS011;6756;51.354;15.754;2023-04-06T09:18:00;11.63;;;9.40;;
13374;SDS011;6756;51.354;15.754;2023-04-06T09:22:08;11.97;;;8.97;;
13374;SDS011;6756;51.354;15.754;2023-04-06T09:26:10;10.20;;;8.07;;
13374;SDS011;6756;51.354;15.754;2023-04-06T09:30:22;10.17;;;7.43;;
13374;SDS011;6756;51.354;15.754;2023-04-06T09:34:24;10.77;;;7.87;;
13374;SDS011;6756;51.354;15.754;2023-04-06T09:38:26;8.53;;;6.53;;
13374;SDS011;6756;51.354;15.754;2023-04-06T09:42:34;7.37;;;6.13;;
13374;SDS011;6756;51.354;15.754;2023-04-06T09:46:36;8.10;;;6.40;;
13374;SDS011;6756;51.354;15.754;2023-04-06T09:50:41;9.57;;;7.30;;
13374;SDS011;6756;51.354;15.754;2023-04-06T09:54:43;9.93;;;6.03;;
13374;SDS011;6756;51.354;15.754;2023-04-06T09:58:48;9.20;;;6.67;;
13374;SDS011;6756;51.354;15.754;2023-04-06T10:03:18;8.20;;;5.40;;
13374;SDS011;6756;51.354;15.754;2023-04-06T10:07:30;11.73;;;5.90;;
13374;SDS011;6756;51.354;15.754;2023-04-06T10:11:32;8.97;;;6.07;;
13374;SDS011;6756;51.354;15.754;2023-04-06T10:15:37;10.33;;;7.07;;
13374;SDS011;6756;51.354;15.754;2023-04-06T10:24:21;9.20;;;7.07;;
13374;SDS011;6756;51.354;15.754;2023-04-06T10:28:26;9.67;;;7.00;;
13374;SDS011;6756;51.354;15.754;2023-04-06T10:32:43;14.10;;;9.13;;
13374;SDS011;6756;51.354;15.754;2023-04-06T10:36:45;13.10;;;8.10;;
13374;SDS011;6756;51.354;15.754;2023-04-06T10:40:46;8.13;;;6.10;;
13374;SDS011;6756;51.354;15.754;2023-04-06T10:44:49;10.40;;;7.73;;
13374;SDS011;6756;51.354;15.754;2023-04-06T10:48:50;11.67;;;8.53;;
13374;SDS011;6756;51.354;15.754;2023-04-06T10:52:59;10.43;;;7.83;;
13374;SDS011;6756;51.354;15.754;2023-04-06T10:57:02;10.63;;;6.27;;
13374;SDS011;6756;51.354;15.754;2023-04-06T11:01:03;20.93;;;12.53;;
13374;SDS011;6756;51.354;15.754;2023-04-06T11:05:04;14.93;;;9.07;;
13374;SDS011;6756;51.354;15.754;2023-04-06T11:09:11;16.63;;;10.90;;
13374;SDS011;6756;51.354;15.754;2023-04-06T11:13:36;9.83;;;6.27;;
13374;SDS011;6756;51.354;15.754;2023-04-06T11:18:03;6.67;;;4.93;;
13374;SDS011;6756;51.354;15.754;2023-04-06T11:22:14;13.67;;;7.50;;
13374;SDS011;6756;51.354;15.754;2023-04-06T11:26:16;8.53;;;6.00;;
13374;SDS011;6756;51.354;15.754;2023-04-06T11:30:17;8.97;;;6.10;;
13374;SDS011;6756;51.354;15.754;2023-04-06T11:34:22;7.57;;;5.97;;
13374;SDS011;6756;51.354;15.754;2023-04-06T11:38:24;7.43;;;5.57;;
13374;SDS011;6756;51.354;15.754;2023-04-06T11:42:26;10.37;;;7.70;;
13374;SDS011;6756;51.354;15.754;2023-04-06T11:46:51;8.53;;;6.87;;
13374;SDS011;6756;51.354;15.754;2023-04-06T11:50:59;7.57;;;6.53;;
13374;SDS011;6756;51.354;15.754;2023-04-06T11:55:22;9.30;;;6.97;;
13374;SDS011;6756;51.354;15.754;2023-04-06T11:59:23;7.40;;;4.73;;
13374;SDS011;6756;51.354;15.754;2023-04-06T12:03:24;8.37;;;5.20;;
13374;SDS011;6756;51.354;15.754;2023-04-06T12:07:26;6.53;;;4.77;;
13374;SDS011;6756;51.354;15.754;2023-04-06T12:11:28;8.83;;;6.43;;
13374;SDS011;6756;51.354;15.754;2023-04-06T12:15:29;7.13;;;4.90;;
13374;SDS011;6756;51.354;15.754;2023-04-06T12:19:31;7.03;;;5.57;;
13374;SDS011;6756;51.354;15.754;2023-04-06T12:23:35;7.83;;;4.80;;
13374;SDS011;6756;51.354;15.754;2023-04-06T12:27:39;8.37;;;5.20;;
13374;SDS011;6756;51.354;15.754;2023-04-06T12:31:40;8.90;;;6.10;;
13374;SDS011;6756;51.354;15.754;2023-04-06T12:35:43;14.10;;;9.03;;
13374;SDS011;6756;51.354;15.754;2023-04-06T12:39:44;9.63;;;6.07;;
13374;SDS011;6756;51.354;15.754;2023-04-06T12:43:46;9.10;;;5.77;;
13374;SDS011;6756;51.354;15.754;2023-04-06T12:47:48;7.87;;;6.20;;
13374;SDS011;6756;51.354;15.754;2023-04-06T12:51:52;9.53;;;6.50;;
13374;SDS011;6756;51.354;15.754;2023-04-06T12:55:53;15.20;;;10.67;;
13374;SDS011;6756;51.354;15.754;2023-04-06T12:59:55;8.73;;;6.57;;
13374;SDS011;6756;51.354;15.754;2023-04-06T13:03:57;12.43;;;7.37;;
13374;SDS011;6756;51.354;15.754;2023-04-06T13:08:01;10.70;;;7.60;;
13374;SDS011;6756;51.354;15.754;2023-04-06T13:12:02;12.03;;;6.87;;
13374;SDS011;6756;51.354;15.754;2023-04-06T13:16:07;9.33;;;7.43;;
13374;SDS011;6756;51.354;15.754;2023-04-06T13:20:11;8.43;;;6.53;;
13374;SDS011;6756;51.354;15.754;2023-04-06T13:24:16;11.03;;;7.03;;
13374;SDS011;6756;51.354;15.754;2023-04-06T13:28:35;12.97;;;8.27;;
13374;SDS011;6756;51.354;15.754;2023-04-06T13:32:39;18.20;;;11.37;;
13374;SDS011;6756;51.354;15.754;2023-04-06T13:36:41;11.13;;;8.27;;
13374;SDS011;6756;51.354;15.754;2023-04-06T13:41:04;17.87;;;9.90;;
13374;SDS011;6756;51.354;15.754;2023-04-06T13:45:07;20.60;;;10.80;;
13374;SDS011;6756;51.354;15.754;2023-04-06T13:49:11;22.70;;;12.37;;
13374;SDS011;6756;51.354;15.754;2023-04-06T13:53:15;8.73;;;6.30;;
13374;SDS011;6756;51.354;15.754;2023-04-06T13:57:16;7.70;;;5.87;;
13374;SDS011;6756;51.354;15.754;2023-04-06T14:01:26;9.23;;;5.33;;
13374;SDS011;6756;51.354;15.754;2023-04-06T14:05:30;8.97;;;6.17;;
13374;SDS011;6756;51.354;15.754;2023-04-06T14:09:32;8.97;;;5.67;;
13374;SDS011;6756;51.354;15.754;2023-04-06T14:13:34;8.00;;;5.57;;
13374;SDS011;6756;51.354;15.754;2023-04-06T14:17:35;12.70;;;7.73;;
13374;SDS011;6756;51.354;15.754;2023-04-06T14:21:37;10.83;;;7.20;;
13374;SDS011;6756;51.354;15.754;2023-04-06T14:25:48;8.60;;;6.13;;
13374;SDS011;6756;51.354;15.754;2023-04-06T14:29:51;11.73;;;7.47;;
13374;SDS011;6756;51.354;15.754;2023-04-06T14:33:57;9.03;;;7.53;;
13374;SDS011;6756;51.354;15.754;2023-04-06T14:37:58;12.87;;;8.60;;
13374;SDS011;6756;51.354;15.754;2023-04-06T14:42:01;30.20;;;16.57;;
13374;SDS011;6756;51.354;15.754;2023-04-06T14:46:02;16.63;;;9.13;;
13374;SDS011;6756;51.354;15.754;2023-04-06T14:50:10;11.70;;;7.87;;
13374;SDS011;6756;51.354;15.754;2023-04-06T14:54:11;8.20;;;6.10;;
13374;SDS011;6756;51.354;15.754;2023-04-06T14:58:13;12.67;;;8.80;;
13374;SDS011;6756;51.354;15.754;2023-04-06T15:02:13;28.47;;;15.67;;
13374;SDS011;6756;51.354;15.754;2023-04-06T15:06:15;9.73;;;6.10;;
13374;SDS011;6756;51.354;15.754;2023-04-06T15:10:17;6.90;;;5.37;;
13374;SDS011;6756;51.354;15.754;2023-04-06T15:14:18;7.27;;;5.10;;
13374;SDS011;6756;51.354;15.754;2023-04-06T15:18:31;17.27;;;8.90;;
13374;SDS011;6756;51.354;15.754;2023-04-06T15:22:33;14.07;;;9.93;;
13374;SDS011;6756;51.354;15.754;2023-04-06T15:26:35;11.67;;;6.53;;
13374;SDS011;6756;51.354;15.754;2023-04-06T15:30:40;7.60;;;5.17;;
13374;SDS011;6756;51.354;15.754;2023-04-06T15:34:41;7.70;;;4.80;;
13374;SDS011;6756;51.354;15.754;2023-04-06T15:38:42;7.53;;;5.10;;
13374;SDS011;6756;51.354;15.754;2023-04-06T15:42:43;10.97;;;7.20;;
13374;SDS011;6756;51.354;15.754;2023-04-06T15:46:44;11.67;;;7.07;;
13374;SDS011;6756;51.354;15.754;2023-04-06T15:50:45;11.77;;;6.50;;
13374;SDS011;6756;51.354;15.754;2023-04-06T15:54:49;10.53;;;6.60;;
13374;SDS011;6756;51.354;15.754;2023-04-06T15:58:50;11.07;;;7.17;;
13374;SDS011;6756;51.354;15.754;2023-04-06T16:02:52;18.33;;;13.40;;
13374;SDS011;6756;51.354;15.754;2023-04-06T16:06:52;34.43;;;18.33;;
13374;SDS011;6756;51.354;15.754;2023-04-06T16:10:57;7.20;;;5.30;;
13374;SDS011;6756;51.354;15.754;2023-04-06T16:14:59;28.27;;;14.80;;
13374;SDS011;6756;51.354;15.754;2023-04-06T16:19:00;8.67;;;6.47;;
13374;SDS011;6756;51.354;15.754;2023-04-06T16:23:01;19.30;;;11.40;;
13374;SDS011;6756;51.354;15.754;2023-04-06T16:27:02;14.43;;;9.87;;
13374;SDS011;6756;51.354;15.754;2023-04-06T16:31:04;12.03;;;7.63;;
13374;SDS011;6756;51.354;15.754;2023-04-06T16:35:08;11.93;;;8.63;;
13374;SDS011;6756;51.354;15.754;2023-04-06T16:39:19;14.47;;;10.90;;
13374;SDS011;6756;51.354;15.754;2023-04-06T16:43:20;11.13;;;7.60;;
13374;SDS011;6756;51.354;15.754;2023-04-06T16:47:22;12.00;;;8.00;;
13374;SDS011;6756;51.354;15.754;2023-04-06T16:51:23;10.63;;;7.60;;
13374;SDS011;6756;51.354;15.754;2023-04-06T16:55:29;37.47;;;21.07;;
13374;SDS011;6756;51.354;15.754;2023-04-06T16:59:50;28.57;;;16.30;;
13374;SDS011;6756;51.354;15.754;2023-04-06T17:03:51;25.13;;;14.77;;
13374;SDS011;6756;51.354;15.754;2023-04-06T17:07:53;48.53;;;27.23;;
13374;SDS011;6756;51.354;15.754;2023-04-06T17:11:54;27.93;;;16.43;;
13374;SDS011;6756;51.354;15.754;2023-04-06T17:16:18;17.73;;;13.03;;
13374;SDS011;6756;51.354;15.754;2023-04-06T17:24:53;67.93;;;34.13;;
13374;SDS011;6756;51.354;15.754;2023-04-06T17:28:54;46.67;;;26.00;;
13374;SDS011;6756;51.354;15.754;2023-04-06T17:32:59;37.23;;;21.93;;
13374;SDS011;6756;51.354;15.754;2023-04-06T17:37:00;38.70;;;21.83;;
13374;SDS011;6756;51.354;15.754;2023-04-06T17:41:01;57.77;;;27.03;;
13374;SDS011;6756;51.354;15.754;2023-04-06T17:45:12;34.40;;;17.33;;
13374;SDS011;6756;51.354;15.754;2023-04-06T17:49:14;16.63;;;9.43;;
13374;SDS011;6756;51.354;15.754;2023-04-06T17:53:15;11.47;;;6.60;;
13374;SDS011;6756;51.354;15.754;2023-04-06T17:57:19;9.90;;;6.03;;
13374;SDS011;6756;51.354;15.754;2023-04-06T18:01:22;9.50;;;4.90;;
13374;SDS011;6756;51.354;15.754;2023-04-06T18:05:30;6.77;;;3.83;;
13374;SDS011;6756;51.354;15.754;2023-04-06T18:09:31;6.23;;;3.83;;
13374;SDS011;6756;51.354;15.754;2023-04-06T18:13:36;5.83;;;3.63;;
13374;SDS011;6756;51.354;15.754;2023-04-06T18:17:37;4.50;;;3.60;;
13374;SDS011;6756;51.354;15.754;2023-04-06T18:21:38;6.73;;;4.20;;
13374;SDS011;6756;51.354;15.754;2023-04-06T18:25:39;5.53;;;3.77;;
13374;SDS011;6756;51.354;15.754;2023-04-06T18:29:46;4.63;;;3.57;;
13374;SDS011;6756;51.354;15.754;2023-04-06T18:33:49;5.43;;;3.30;;
13374;SDS011;6756;51.354;15.754;2023-04-06T18:37:52;7.03;;;3.43;;
13374;SDS011;6756;51.354;15.754;2023-04-06T18:41:53;4.90;;;3.37;;
13374;SDS011;6756;51.354;15.754;2023-04-06T18:45:58;4.80;;;3.50;;
13374;SDS011;6756;51.354;15.754;2023-04-06T18:49:59;5.07;;;3.50;;
13374;SDS011;6756;51.354;15.754;2023-04-06T18:54:00;6.40;;;3.80;;
13374;SDS011;6756;51.354;15.754;2023-04-06T18:58:01;5.43;;;3.63;;
13374;SDS011;6756;51.354;15.754;2023-04-06T19:02:03;5.63;;;3.67;;
13374;SDS011;6756;51.354;15.754;2023-04-06T19:06:05;7.13;;;4.40;;
13374;SDS011;6756;51.354;15.754;2023-04-06T19:10:07;5.27;;;3.33;;
13374;SDS011;6756;51.354;15.754;2023-04-06T19:14:08;5.37;;;3.50;;
13374;SDS011;6756;51.354;15.754;2023-04-06T19:18:10;8.50;;;4.60;;
13374;SDS011;6756;51.354;15.754;2023-04-06T19:22:14;5.63;;;3.90;;
13374;SDS011;6756;51.354;15.754;2023-04-06T19:26:16;4.27;;;3.27;;
13374;SDS011;6756;51.354;15.754;2023-04-06T19:30:18;12.80;;;6.47;;
13374;SDS011;6756;51.354;15.754;2023-04-06T19:34:19;13.07;;;7.00;;
13374;SDS011;6756;51.354;15.754;2023-04-06T19:38:20;8.27;;;4.43;;
13374;SDS011;6756;51.354;15.754;2023-04-06T19:42:21;21.80;;;8.20;;
13374;SDS011;6756;51.354;15.754;2023-04-06T19:46:24;32.50;;;12.33;;
13374;SDS011;6756;51.354;15.754;2023-04-06T19:50:25;13.73;;;7.20;;
13374;SDS011;6756;51.354;15.754;2023-04-06T19:54:30;7.77;;;5.37;;
13374;SDS011;6756;51.354;15.754;2023-04-06T19:58:31;7.93;;;4.60;;
13374;SDS011;6756;51.354;15.754;2023-04-06T20:02:37;6.37;;;4.77;;
13374;SDS011;6756;51.354;15.754;2023-04-06T20:06:41;6.40;;;4.77;;
13374;SDS011;6756;51.354;15.754;2023-04-06T20:10:58;7.07;;;4.50;;
13374;SDS011;6756;51.354;15.754;2023-04-06T20:20:03;8.13;;;4.30;;
13374;SDS011;6756;51.354;15.754;2023-04-06T20:24:05;7.97;;;4.23;;
13374;SDS011;6756;51.354;15.754;2023-04-06T20:28:06;6.27;;;4.13;;
13374;SDS011;6756;51.354;15.754;2023-04-06T20:32:08;6.70;;;4.30;;
13374;SDS011;6756;51.354;15.754;2023-04-06T20:40:43;5.40;;;4.50;;
13374;SDS011;6756;51.354;15.754;2023-04-06T20:45:09;5.97;;;4.07;;
13374;SDS011;6756;51.354;15.754;2023-04-06T20:49:17;8.30;;;5.43;;
13374;SDS011;6756;51.354;15.754;2023-04-06T20:53:21;8.17;;;4.80;;
13374;SDS011;6756;51.354;15.754;2023-04-06T20:57:30;10.47;;;5.07;;
13374;SDS011;6756;51.354;15.754;2023-04-06T21:01:35;7.13;;;4.97;;
13374;SDS011;6756;51.354;15.754;2023-04-06T21:05:38;7.33;;;4.77;;
13374;SDS011;6756;51.354;15.754;2023-04-06T21:09:59;8.80;;;4.70;;
13374;SDS011;6756;51.354;15.754;2023-04-06T21:14:06;7.67;;;5.47;;
13374;SDS011;6756;51.354;15.754;2023-04-06T21:18:15;8.20;;;4.97;;
13374;SDS011;6756;51.354;15.754;2023-04-06T21:22:16;9.23;;;5.40;;
13374;SDS011;6756;51.354;15.754;2023-04-06T21:26:17;8.57;;;4.73;;
13374;SDS011;6756;51.354;15.754;2023-04-06T21:30:24;9.30;;;5.27;;
13374;SDS011;6756;51.354;15.754;2023-04-06T21:34:42;8.27;;;5.30;;
13374;SDS011;6756;51.354;15.754;2023-04-06T21:38:51;8.23;;;5.53;;
13374;SDS011;6756;51.354;15.754;2023-04-06T21:43:14;7.67;;;5.53;;
13374;SDS011;6756;51.354;15.754;2023-04-06T21:47:35;9.57;;;5.80;;
13374;SDS011;6756;51.354;15.754;2023-04-06T21:51:42;9.83;;;5.40;;
13374;SDS011;6756;51.354;15.754;2023-04-06T21:55:44;7.37;;;4.87;;
13374;SDS011;6756;51.354;15.754;2023-04-06T21:59:49;8.17;;;5.43;;
13374;SDS011;6756;51.354;15.754;2023-04-06T22:04:06;8.03;;;5.40;;
13374;SDS011;6756;51.354;15.754;2023-04-06T22:08:53;8.97;;;5.80;;
13374;SDS011;6756;51.354;15.754;2023-04-06T22:17:11;7.33;;;4.90;;
13374;SDS011;6756;51.354;15.754;2023-04-06T22:21:35;8.33;;;5.50;;
13374;SDS011;6756;51.354;15.754;2023-04-06T22:25:51;7.40;;;5.10;;
13374;SDS011;6756;51.354;15.754;2023-04-06T22:30:19;10.60;;;5.33;;
13374;SDS011;6756;51.354;15.754;2023-04-06T22:34:26;11.63;;;5.93;;
13374;SDS011;6756;51.354;15.754;2023-04-06T22:38:30;7.63;;;5.33;;
13374;SDS011;6756;51.354;15.754;2023-04-06T22:42:40;10.73;;;5.97;;
13374;SDS011;6756;51.354;15.754;2023-04-06T22:47:04;7.77;;;5.63;;
13374;SDS011;6756;51.354;15.754;2023-04-06T22:51:05;12.63;;;7.13;;
13374;SDS011;6756;51.354;15.754;2023-04-06T22:55:06;10.13;;;6.90;;
13374;SDS011;6756;51.354;15.754;2023-04-06T22:59:07;12.27;;;7.70;;
13374;SDS011;6756;51.354;15.754;2023-04-06T23:03:14;13.00;;;8.17;;
13374;SDS011;6756;51.354;15.754;2023-04-06T23:07:15;16.70;;;9.13;;
13374;SDS011;6756;51.354;15.754;2023-04-06T23:11:16;14.13;;;8.30;;
13374;SDS011;6756;51.354;15.754;2023-04-06T23:15:17;13.13;;;8.50;;
13374;SDS011;6756;51.354;15.754;2023-04-06T23:19:18;13.83;;;8.27;;
13374;SDS011;6756;51.354;15.754;2023-04-06T23:23:22;13.73;;;8.40;;
13374;SDS011;6756;51.354;15.754;2023-04-06T23:27:23;15.23;;;8.87;;
13374;SDS011;6756;51.354;15.754;2023-04-06T23:31:24;16.53;;;9.33;;
13374;SDS011;6756;51.354;15.754;2023-04-06T23:35:25;16.30;;;9.47;;
13374;SDS011;6756;51.354;15.754;2023-04-06T23:39:29;17.77;;;10.23;;
13374;SDS011;6756;51.354;15.754;2023-04-06T23:43:30;16.87;;;9.37;;
13374;SDS011;6756;51.354;15.754;2023-04-06T23:47:32;17.97;;;10.00;;
13374;SDS011;6756;51.354;15.754;2023-04-06T23:51:33;16.53;;;9.70;;
13374;SDS011;6756;51.354;15.754;2023-04-06T23:55:34;17.97;;;10.53;;
13374;SDS011;6756;51.354;15.754;2023-04-06T23:59:35;17.80;;;10.27;;
